• Join FlightAware (Why Join?)
  • Login
  • US Flag 
06:02PM EDT


 

Airport Tracker/Info


-or-


 

Live Flight TrackerFlight Track Log ✈ N26TF ✈ 24-Jul-2013 ✈ KDLH - KBWI

Flight Track Log - Related Links

Times and Time Zones

All times are in EDT time to prevent confusion due to time zone crossing. See the N26TF flight status page for this flight to view local times or setup timezone preferences in your user account.

Time Position Orientation Groundspeed Altitude Reporting Facility
EDT Latitude Longitude Course Direction KTS MPH feet Rate Location/Type
05:25PM 46.7419 -92.1111 138° Southeast 174 200 7,500  Level Minneapolis Center
05:26PM 46.7022 -92.0589 138° Southeast 166 191 9,700 1,680 Climbing Minneapolis Center
05:27PM 46.6728 -92.0089 131° Southeast 163 188 11,400 1,200 Climbing Minneapolis Center
05:28PM 46.6440 -91.6659 128° Southeast  Level Estimated
05:28PM 46.6406 -91.9325 122° Southeast 180 207 12,500  Level Minneapolis Center
05:29PM 46.5819 -91.6230 155° Southeast  Level FlightAware Approximate
05:29PM 46.6136 -91.8836 129° Southeast 190 219 13,400  Level Minneapolis Center
05:30PM 46.5767 -91.8139 128° Southeast 183 211 14,900 1,380 Climbing Minneapolis Center
05:31PM 46.5439 -91.7489 126° Southeast 169 194 16,300 1,140 Climbing Minneapolis Center
05:32PM 46.5186 -91.6969 125° Southeast 161 185 17,300 900 Climbing Minneapolis Center
05:33PM 46.4900 -91.6453 129° Southeast 162 186 18,200 900 Climbing Minneapolis Center
05:34PM 46.4608 -91.5875 126° Southeast 176 203 19,200 900 Climbing Minneapolis Center
05:35PM 46.4236 -91.5239 130° Southeast 201 231 20,100 900 Climbing Minneapolis Center
05:36PM 46.3772 -91.4403 129° Southeast 219 252 21,100 900 Climbing Minneapolis Center
05:37PM 46.3397 -91.3650 126° Southeast 228 262 22,000 720 Climbing Minneapolis Center
05:38PM 46.2992 -91.2867 127° Southeast 240 276 22,600 480 Climbing Minneapolis Center
05:39PM 46.2547 -91.2075 129° Southeast 250 288 23,100 240 Climbing Minneapolis Center
05:41PM 46.2064 -91.1217 129° Southeast 270 311 23,200 480 Climbing Minneapolis Center
05:42PM 46.1531 -91.0214 127° Southeast 265 305 24,100 780 Climbing Minneapolis Center
05:43PM 46.1078 -90.9392 128° Southeast 263 303 24,900 420 Climbing Minneapolis Center
05:44PM 46.0647 -90.8572 127° Southeast 261 300 25,000 60 Climbing Minneapolis Center
05:45PM 46.0186 -90.7703 127° Southeast 265 305 25,100  Climbing Minneapolis Center
05:46PM 45.9706 -90.6761 126° Southeast 277 319 25,000 -60 Descending Minneapolis Center
05:47PM 45.9203 -90.5847 128° Southeast 285 328 25,000  Level Minneapolis Center
05:48PM 45.8592 -90.4756 129° Southeast 291 335 25,000  Level Minneapolis Center
05:49PM 45.8094 -90.3833 128° Southeast 293 337 25,000  Level Minneapolis Center
05:50PM 45.7589 -90.2928 129° Southeast 292 336 25,000  Level Minneapolis Center
05:51PM 45.7083 -90.2014 128° Southeast 294 338 25,000  Level Minneapolis Center
05:52PM 45.6583 -90.1108 128° Southeast 292 336 25,000  Level Minneapolis Center
05:53PM 45.6083 -90.0231 129° Southeast 288 331 25,000  Level Minneapolis Center
05:54PM 45.5383 -89.8975 128° Southeast 290 334 25,000  Level Minneapolis Center
05:55PM 45.4975 -89.8250 129° Southeast 292 336 25,000  Level Minneapolis Center
05:56PM 45.4367 -89.7183 129° Southeast 290 334 25,000  Level Minneapolis Center
05:57PM 45.3869 -89.6281 128° Southeast 291 335 25,100  Climbing Minneapolis Center
05:58PM 45.3367 -89.5389 129° Southeast 291 335 25,100 -60 Level Minneapolis Center
05:59PM 45.2756 -89.4333 129° Southeast 289 333 25,000  Descending Minneapolis Center
06:00PM 45.2256 -89.3453 129° Southeast 288 331 25,100  Climbing Minneapolis Center
06:01PM 45.1750 -89.2583 129° Southeast 288 331 25,000 -60 Descending Minneapolis Center
06:03PM 45.1253 -89.1711 129° Southeast 287 330 25,000  Level Minneapolis Center
06:04PM 45.0656 -89.0656 129° Southeast 287 330 25,000  Level Minneapolis Center
06:05PM 45.0203 -88.9883 130° Southeast 287 330 25,100  Climbing Minneapolis Center
06:06PM 44.9528 -88.8731 130° Southeast 285 328 25,000 -60 Descending Minneapolis Center
06:07PM 44.9022 -88.7856 129° Southeast 286 329 25,000  Level Minneapolis Center
06:08PM 44.8514 -88.6994 130° Southeast 285 328 25,100  Climbing Minneapolis Center
06:09PM 44.8006 -88.6108 129° Southeast 290 334 25,000  Descending Minneapolis Center
06:10PM 44.7406 -88.5114 130° Southeast 286 329 25,100  Climbing Minneapolis Center
06:11PM 44.6906 -88.4244 129° Southeast 285 328 25,000 -60 Descending Minneapolis Center
06:12PM 44.6403 -88.3408 130° Southeast 281 323 25,000  Level Minneapolis Center
06:13PM 44.5897 -88.2525 129° Southeast 286 329 25,100  Climbing Minneapolis Center
06:14PM 44.5417 -88.1658 128° Southeast 283 326 25,000  Descending Minneapolis Center
06:15PM 44.5058 -88.0475 113° Southeast 282 325 25,100  Climbing Minneapolis Center
06:16PM 44.4725 -87.9464 115° Southeast 284 327 25,100 -60 Level Minneapolis Center
06:17PM 44.4392 -87.8469 115° Southeast 283 326 25,000 -60 Descending Minneapolis Center
06:18PM 44.4056 -87.7456 115° Southeast 284 327 25,000  Level Minneapolis Center
06:19PM 44.3719 -87.6453 115° Southeast 284 327 25,000  Level Minneapolis Center
06:20PM 44.3325 -87.5269 115° Southeast 286 329 25,100  Climbing Minneapolis Center
06:21PM 44.2981 -87.4264 116° Southeast 285 328 25,100  Level Minneapolis Center
06:22PM 44.2644 -87.3258 115° Southeast 285 328 25,100  Level Minneapolis Center
06:23PM 44.2306 -87.2267 115° Southeast 283 326 25,100 -60 Level Minneapolis Center
06:24PM 44.1947 -87.1239 116° Southeast 284 327 25,000  Descending Minneapolis Center
06:26PM 44.1608 -87.0247 115° Southeast 284 327 25,100  Climbing Minneapolis Center
06:27PM 44.1261 -86.9250 116° Southeast 286 329 25,100 -60 Level Minneapolis Center
06:28PM 44.0922 -86.8256 115° Southeast 284 327 25,000 -60 Descending Minneapolis Center
06:29PM 44.0503 -86.7089 117° Southeast 282 325 25,000  Level Minneapolis Center
06:30PM 44.0178 -86.6103 115° Southeast 282 325 25,000  Level Minneapolis Center
06:31PM 43.9833 -86.5128 116° Southeast 281 323 25,000  Level Minneapolis Center
06:32PM 43.9492 -86.4158 116° Southeast 280 322 25,000  Level Minneapolis Center
06:33PM 43.9144 -86.3178 116° Southeast 283 326 25,100  Climbing Minneapolis Center
06:34PM 43.8817 -86.2208 115° Southeast 279 321 25,000 -60 Descending Minneapolis Center
06:35PM 43.8403 -86.1064 117° Southeast 278 320 25,000  Level Minneapolis Center
06:36PM 43.7997 -85.9906 116° Southeast 278 320 25,000  Level Minneapolis Center
06:37PM 43.7656 -85.8950 116° Southeast 278 320 25,100  Climbing Minneapolis Center
06:38PM 43.7306 -85.7997 117° Southeast 277 319 25,000  Descending Minneapolis Center
06:39PM 43.6969 -85.7044 116° Southeast 277 319 25,100  Climbing Minneapolis Center
06:40PM 43.6625 -85.6097 117° Southeast 276 318 25,000 -60 Descending Minneapolis Center
06:41PM 43.6208 -85.4961 117° Southeast 276 318 25,000  Level Minneapolis Center
06:42PM 43.5933 -85.4206 117° Southeast 276 318 25,000  Level Chicago Center
06:43PM 43.5589 -85.3250 116° Southeast 277 319 25,000  Level Chicago Center
06:44PM 43.5244 -85.2294 116° Southeast 278 320 25,000  Level Chicago Center
06:45PM 43.4897 -85.1342 117° Southeast 278 320 25,100  Climbing Chicago Center
06:46PM 43.4547 -85.0392 117° Southeast 278 320 25,100 -60 Level Chicago Center
06:47PM 43.4125 -84.9256 117° Southeast 277 319 25,000 -120 Descending Chicago Center
06:48PM 43.3917 -84.8700 117° Southeast 277 319 25,000 60 Level Minneapolis Center
06:49PM 43.3569 -84.7764 117° Southeast 275 316 25,100  Climbing Minneapolis Center
06:50PM 43.3283 -84.7003 117° Southeast 277 319 25,000 -60 Descending Minneapolis Center
06:51PM 43.2867 -84.5878 117° Southeast 278 320 25,000  Level Minneapolis Center
06:52PM 43.2575 -84.5125 118° Southeast 278 320 25,100  Climbing Minneapolis Center
06:53PM 43.2078 -84.4081 123° Southeast 277 319 25,000  Descending Minneapolis Center
06:54PM 43.1378 -84.3258 139° Southeast 275 316 25,100  Climbing Minneapolis Center
06:55PM 43.0850 -84.2703 142° Southeast 268 308 25,100  Level Cleveland Center
06:56PM 43.0581 -84.2300 132° Southeast 273 314 25,100 -120 Level Chicago Center
06:57PM 43.0011 -84.1608 138° Southeast 275 316 25,000  Descending Chicago Center
06:58PM 42.9142 -84.0647 141° Southeast 269 310 25,100  Climbing Cleveland Center
06:59PM 42.8597 -83.9992 139° Southeast 269 310 25,000  Descending Cleveland Center
07:00PM 42.8014 -83.9308 139° Southeast 269 310 25,100  Climbing Cleveland Center
07:01PM 42.7447 -83.8658 140° Southeast 269 310 25,100  Level Cleveland Center
07:02PM 42.6864 -83.7947 138° Southeast 269 310 25,100 -60 Level Cleveland Center
07:03PM 42.6319 -83.7300 139° Southeast 269 310 25,000  Descending Cleveland Center
07:04PM 42.5753 -83.6622 139° Southeast 269 310 25,100  Climbing Cleveland Center
07:05PM 42.5167 -83.5947 140° Southeast 269 310 25,100 -60 Level Cleveland Center
07:06PM 42.4619 -83.5300 139° Southeast 269 310 25,000  Descending Cleveland Center
07:07PM 42.3950 -83.4567 141° Southeast 274 315 25,100  Climbing Cleveland Center
07:08PM 42.3406 -83.3894 138° Southeast 274 315 25,000  Descending Cleveland Center
07:09PM 42.2817 -83.3225 140° Southeast 269 310 25,100  Climbing Cleveland Center
07:10PM 42.2269 -83.2583 139° Southeast 269 310 25,000  Descending Cleveland Center
07:11PM 42.1700 -83.1914 139° Southeast 269 310 25,100  Climbing Cleveland Center
07:12PM 42.1131 -83.1275 140° Southeast 269 310 25,000  Descending Cleveland Center
07:13PM 42.0561 -83.0608 139° Southeast 269 310 25,100  Climbing Cleveland Center
07:14PM 41.9972 -82.9944 140° Southeast 269 310 25,000 -60 Descending Cleveland Center
07:15PM 41.9400 -82.9308 140° Southeast 269 310 25,000  Level Cleveland Center
07:16PM 41.8850 -82.8647 138° Southeast 269 310 25,000  Level Cleveland Center
07:17PM 41.8281 -82.8014 140° Southeast 269 310 25,100  Climbing Cleveland Center
07:18PM 41.7708 -82.7381 140° Southeast 269 310 25,100  Level Cleveland Center
07:19PM 41.7136 -82.6722 139° Southeast 269 310 25,100  Level Cleveland Center
07:20PM 41.6586 -82.6064 138° Southeast 269 310 25,100  Level Cleveland Center
07:21PM 41.6097 -82.5328 132° Southeast 269 310 25,100 -60 Level Cleveland Center
07:22PM 41.5611 -82.4592 131° Southeast 264 304 25,000  Descending Cleveland Center
07:23PM 41.5100 -82.3856 133° Southeast 264 304 25,100  Climbing Cleveland Center
07:24PM 41.4611 -82.3122 132° Southeast 269 310 25,100  Level Cleveland Center
07:25PM 41.4122 -82.2417 133° Southeast 264 304 25,100 -60 Level Cleveland Center
07:26PM 41.3633 -82.1683 132° Southeast 264 304 25,000 -60 Descending Cleveland Center
07:27PM 41.3225 -82.1011 129° Southeast 264 304 25,000  Level Cleveland Center
07:28PM 41.2711 -82.0308 134° Southeast 264 304 25,000  Level Cleveland Center
07:29PM 41.2219 -81.9606 133° Southeast 264 304 25,000  Level Cleveland Center
07:30PM 41.1728 -81.8850 131° Southeast 264 304 25,000  Level Cleveland Center
07:31PM 41.1133 -81.8067 135° Southeast 269 310 25,100  Climbing Cleveland Center
07:32PM 41.0642 -81.7342 132° Southeast 269 310 25,000 -60 Descending Cleveland Center
07:33PM 41.0125 -81.6617 133° Southeast 269 310 25,000  Level Cleveland Center
07:34PM 40.9694 -81.5978 132° Southeast 269 310 25,100  Climbing Cleveland Center
07:35PM 40.9181 -81.5256 133° Southeast 269 310 25,000 -60 Descending Cleveland Center
07:36PM 40.8686 -81.4536 132° Southeast 269 310 25,000  Level Cleveland Center
07:37PM 40.8189 -81.3814 132° Southeast 269 310 25,100  Climbing Cleveland Center
07:38PM 40.7717 -81.3042 129° Southeast 269 310 25,000 -60 Descending Cleveland Center
07:39PM 40.7344 -81.2217 121° Southeast 269 310 25,000  Level Cleveland Center
07:40PM 40.6933 -81.1417 124° Southeast 263 303 25,000  Level Cleveland Center
07:41PM 40.6539 -81.0567 121° Southeast 263 303 25,000  Level Cleveland Center
07:42PM 40.6169 -80.9742 121° Southeast 263 303 25,000  Level Cleveland Center
07:43PM 40.5753 -80.8919 124° Southeast 258 297 25,000  Level Cleveland Center
07:44PM 40.5358 -80.8125 123° Southeast 258 297 25,000  Level Cleveland Center
07:45PM 40.4964 -80.7306 122° Southeast 258 297 25,000  Level Cleveland Center
07:46PM 40.4569 -80.6514 123° Southeast 258 297 25,000  Level Cleveland Center
07:47PM 40.4175 -80.5694 122° Southeast 258 297 25,000  Level Cleveland Center
07:48PM 40.3756 -80.4906 125° Southeast 258 297 25,000  Level Cleveland Center
07:49PM 40.3358 -80.4061 122° Southeast 258 297 25,000  Level Cleveland Center
07:50PM 40.2900 -80.3244 126° Southeast 258 297 25,100  Climbing Cleveland Center
07:51PM 40.2481 -80.2431 124° Southeast 268 308 25,000 -60 Descending Cleveland Center
07:52PM 40.2081 -80.1644 124° Southeast 268 308 25,000  Level Cleveland Center
07:53PM 40.1683 -80.0833 123° Southeast 268 308 25,000  Level Cleveland Center
07:54PM 40.1261 -80.0047 125° Southeast 268 308 25,000  Level Cleveland Center
07:55PM 40.0903 -79.9236 120° Southeast 263 303 25,000  Level Cleveland Center
07:56PM 40.0503 -79.8453 124° Southeast 258 297 25,000  Level Cleveland Center
07:57PM 40.0100 -79.7644 123° Southeast 258 297 25,000  Level Cleveland Center
07:58PM 39.9697 -79.6864 124° Southeast 258 297 25,000 -360 Level Cleveland Center
07:59PM 39.9253 -79.6031 125° Southeast 263 303 24,300 -600 Descending Cleveland Center
08:00PM 39.8850 -79.5225 123° Southeast 263 303 23,900 -360 Descending Cleveland Center
08:01PM 39.8447 -79.4447 124° Southeast 263 303 23,600 -540 Descending Cleveland Center
08:03PM 39.7831 -79.3206 123° Southeast 269 310 22,600 -600 Descending Washington Center
08:04PM 39.7417 -79.2456 126° Southeast 263 303 22,000 -660 Descending Washington Center
08:05PM 39.7022 -79.1678 123° Southeast 263 303 21,300 -840 Descending Washington Center
08:06PM 39.6650 -79.0906 122° Southeast 257 296 20,400 -900 Descending Washington Center
08:07PM 39.6444 -79.0061 108° East 252 290 19,600 -900 Descending Washington Center
08:08PM 39.6203 -78.9053 107° East 252 290 18,700 -960 Descending Washington Center
08:09PM 39.6017 -78.8208 106° East 252 290 17,700 -840 Descending Washington Center
08:10PM 39.5850 -78.7419 105° East 242 278 17,000 -900 Descending Washington Center
08:11PM 39.5683 -78.6631 105° East 231 266 16,000 -1,200 Descending Washington Center
08:12PM 39.5475 -78.5817 108° East 231 266 14,700 -1,260 Descending Washington Center
08:13PM 39.5286 -78.4972 106° East 231 266 13,500 -1,200 Descending Washington Center
08:14PM 39.5139 -78.4214 104° East 231 266 12,300 -1,320 Descending Washington Center
08:15PM 39.4967 -78.3481 107° East 221 254 11,000 -1,320 Descending Washington Center
08:16PM 39.4797 -78.2750 107° East 210 242 9,800 -1,020 Descending Washington Center
08:17PM 39.4644 -78.2072 106° East 204 235 9,000 -360 Descending Washington Center
08:18PM 39.4514 -78.1394 104° East 204 235 9,100  Climbing Washington Center
08:19PM 39.4361 -78.0717 106° East 204 235 9,100 -180 Level Washington Center
08:20PM 39.4167 -77.9958 108° East 209 241 8,800 -420 Descending Washington Center
08:21PM 39.4033 -77.9311 105° East 202 232 8,300 -480 Descending Washington Center
08:22PM 39.3881 -77.8633 106° East 202 232 7,900 -540 Descending Washington Center
08:23PM 39.3914 -77.7936 86° East 192 221 7,300 -600 Descending Washington Center
08:25PM 39.4167 -77.6167 79° East 204 235 6,100 -420 Descending Potomac TRACON
08:26PM 39.4167 -77.5500 90° East 191 220 6,100  Level Potomac TRACON
08:27PM 39.4333 -77.4833 72° East 192 221 6,100  Level Potomac TRACON
08:28PM 39.4333 -77.4167 90° East 186 214 6,100  Level Potomac TRACON
08:29PM 39.4500 -77.3500 72° East 186 214 6,100 -60 Level Potomac TRACON
08:30PM 39.4500 -77.2833 90° East 188 216 6,000 -60 Descending Potomac TRACON
08:31PM 39.4667 -77.2167 72° East 185 213 6,000  Level Potomac TRACON
08:32PM 39.4500 -77.1500 108° East 186 214 6,100  Climbing Potomac TRACON
08:33PM 39.4500 -77.0833 90° East 191 220 6,000 -300 Descending Potomac TRACON
08:34PM 39.4500 -77.0167 90° East 201 231 5,500 -480 Descending Potomac TRACON
08:35PM 39.4500 -76.9500 90° East 189 217 5,100 -480 Descending Potomac TRACON
08:36PM 39.4500 -76.8833 90° East 191 220 4,600 -480 Descending Potomac TRACON
08:37PM 39.4667 -76.8167 72° East 187 215 4,200 -480 Descending Potomac TRACON
08:38PM 39.4500 -76.7500 108° East 191 220 3,700 -480 Descending Potomac TRACON
08:39PM 39.4167 -76.6833 123° Southeast 185 213 3,300 -360 Descending Potomac TRACON
08:40PM 39.4000 -76.6333 113° Southeast 184 212 3,000 -180 Descending Potomac TRACON
08:41PM 39.3667 -76.5833 131° Southeast 179 206 3,000  Level Potomac TRACON
08:42PM 39.3333 -76.5333 131° Southeast 184 212 3,000 -180 Level Potomac TRACON
08:43PM 39.2833 -76.5167 166° South 192 221 2,700 -420 Descending Potomac TRACON
08:44PM 39.2167 -76.5000 169° South 190 219 2,200 -360 Descending Potomac TRACON
08:45PM 39.1667 -76.5167 194° South 182 209 2,000 -120 Descending Potomac TRACON
08:46PM 39.1333 -76.5667 229° Southwest 180 207 2,000 -420 Level Potomac TRACON
08:47PM 39.1333 -76.6167 270° West 151 174 1,200 -780 Descending Potomac TRACON
08:48PM 39.1667 -76.6333 339° North 99 114 500 -720 Descending Potomac TRACON